Bodega Bay - 48nm Nnw Of San Francisco, Ca (46013) Wave Buoy

9:50am - Sat 28th Nov 2015 All times are PST. -8 hours from GMT.

  • Sig Wave height 2.6ft
  • Peak Period 15s
  • Average Period 6s
  • Wind
    13mph, 16mph gusts
  • Sea Temp 53°f
  • Air Temp 50°f
  • Sea Pressure 1021.5mb
  • Bodega Bay - 48nm Nnw Of San Francisco, Ca
  • Bodega Bay - 48nm Nnw Of San Francisco, Ca

More Historic Weather Station data

Upgrade to MSW Pro to gain access to the past 30 days of data for over 8000 Wavebouys and Weather Stations around the globe.

Join Pro

Comparision Forecast

View Surf forecast
Sat 11/28 9:50am 2.5ft 15s 6s 13 16 mph 1021.5mb 53f 50f
8:50am 2.5ft 15s 6s 13 16 mph 1021.1mb 53f 49f
7:50am 2.5ft 14s 6s 7 9 mph 1021mb 53f 49f
6:50am 2.5ft 15s 6s 11 13 mph 1020.8mb 53f 49f
5:50am 2.5ft 15s 6s 13 16 mph 1020.7mb 53f 49f
4:50am 2.5ft 14s 6s 16 18 mph 1020.5mb 53f 49f
3:50am 2.5ft 14s 6s 11 13 mph 1020.6mb 53f 50f
2:50am 2.5ft 15s 7s 13 16 mph 1020.4mb 53f 51f
1:50am 2.5ft 13s 6s 11 13 mph 1020.1mb 53f 52f
12:50am 3.5ft 15s 8s 13 16 mph 1020.1mb 53f 52f
Fri 11/27 11:50pm 2.5ft 15s 6s 11 13 mph 1020.3mb 53f 52f
10:50pm 3ft 15s 7s 11 13 mph 1020.3mb 53f 53f
9:50pm 3ft 16s 6s 7 9 mph 1019.8mb 53f 53f
8:50pm 3.5ft 15s 6s 4 9 mph 1019.9mb 53f 53f
7:50pm 3.5ft 15s 5s 9 11 mph 1020mb 53f 52f
6:50pm 3.5ft 16s 5s 11 13 mph 1020.1mb 53f 52f
5:50pm 3ft 16s 6s 13 16 mph 1020.1mb 54f 53f
4:50pm 3ft 16s 7s 11 13 mph 1019.8mb 54f 53f
3:50pm 3ft 16s 8s 11 13 mph 1019.7mb 54f 53f
2:50pm 3ft 16s 7s 9 11 mph 1019.6mb 54f 54f
1:50pm 3ft 16s 6s 9
1020.1mb 54f 53f
12:50pm 3ft 16s 5s 9
1020.8mb 54f 53f
11:50am 3.5ft 16s 5s 4 7 mph 1020.7mb 54f 53f
10:50am 3ft 16s 5s 2 7 mph 1021.3mb 53f 52f
9:50am 3.5ft 16s 5s 13 18 mph 1020.9mb 53f 51f
8:50am 3.5ft 15s 6s 20 22 mph 1020.6mb 53f 51f
7:50am 3.5ft 15s 5s 16 18 mph 1020.7mb 53f 51f
6:50am 4ft 15s 5s 16 20 mph 1020.5mb 53f 51f
5:50am 3.5ft 16s 5s 20 25 mph 1020mb 53f 51f
4:50am 4ft 15s 6s 20 25 mph 1020.3mb 53f 52f
3:50am 3.5ft 16s 5s 16 20 mph 1020.6mb 53f 53f
2:50am 4ft 16s 6s 22 27 mph 1020.4mb 54f 53f
1:50am 4.5ft 16s 6s 20 25 mph 1020.3mb 54f 53f
12:50am 4.5ft 17s 7s 13 16 mph 1020.3mb 54f 52f
Thu 11/26 11:50pm 4ft 17s 7s 9 11 mph 1020.2mb 54f 52f
10:50pm 4.5ft 17s 6s 7 11 mph 1020.1mb 54f 51f
9:50pm 4.5ft 17s 7s 11 13 mph 1019.8mb 54f 52f
8:50pm 5ft 8s 7s 11 13 mph 1019.5mb 54f 52f
7:50pm 4.5ft 10s 6s 11 13 mph 1019.6mb 54f 52f
6:50pm 4.5ft 10s 7s 13 16 mph 1019.4mb 54f 52f
5:50pm 4.5ft 9s 7s 11 13 mph 1019.3mb 54f 52f
4:50pm 4ft 11s 7s 11 13 mph 1019.1mb 54f 52f
3:50pm 4.5ft 19s 8s 9 11 mph 1018.8mb 54f 52f
2:50pm 4.5ft 10s 8s 4 7 mph 1018.6mb 54f 52f
1:50pm 5ft 11s 8s 2 4 mph 1018.7mb 54f 52f
12:50pm 5ft 8s 7s 7 11 mph 1019mb 54f 52f
11:50am 6ft 10s 7s 13 16 mph 1019.6mb 54f 51f
10:50am 5ft 11s 7s 13 16 mph 1019.8mb 53f 51f
9:50am 5.5ft 10s 7s 11 16 mph 1019.6mb 53f 49f
8:50am 5.5ft 9s 7s 11 16 mph 1019.3mb 53f 49f
7:50am 5.5ft 9s 7s 13 18 mph 1018.5mb 53f 47f
6:50am 5.5ft 11s 7s 13 18 mph 1018mb 53f 49f
5:50am 6ft 10s 7s 9 11 mph 1017.8mb 53f 49f
4:50am 6ft 9s 7s 11 13 mph 1017.6mb 53f 49f
3:50am 6.5ft 10s 7s 11 13 mph 1017.3mb 53f 49f
2:50am 7ft 11s 7s 7 11 mph 1017.4mb 53f 49f
1:50am 7.5ft 9s 7s 9 11 mph 1016.7mb 53f 49f
12:50am 8ft 11s 8s 7 11 mph 1016.5mb 53f 51f
Wed 11/25 11:50pm 8ft 11s 8s  -  4 mph 1016.5mb 53f 51f
10:50pm 8.5ft 11s 8s  -  2 mph 1016.3mb 53f 51f
9:50pm 9ft 12s 8s  -  2 mph 1016.2mb 53f 51f
8:50pm 9ft 11s 8s 4 7 mph 1015.8mb 53f 51f
7:50pm 8.5ft 12s 7s 9 13 mph 1015.4mb 53f 51f
6:50pm 9.5ft 13s 8s 16 18 mph 1015.1mb 53f 51f
5:50pm 9.5ft 11s 7s 18 20 mph 1014.8mb 53f 51f
4:50pm 10ft 12s 7s 18 22 mph 1014.5mb 53f 51f
3:50pm 9ft 11s 7s 20 22 mph 1013.9mb 53f 51f
2:50pm 10ft 11s 7s 22 27 mph 1013.7mb 54f 51f
1:50pm 9ft 13s 7s 25 29 mph 1013.4mb 54f 50f
12:50pm 9.5ft 10s 7s 20 25 mph 1013.5mb 54f 50f
11:50am 10ft 14s 8s 18 25 mph 1013.9mb 53f 50f
10:50am 9.5ft 15s 8s 20 25 mph 1014.2mb 53f 49f
9:50am 9.5ft 12s 8s 20 25 mph 1014mb 53f 49f
8:50am 11ft 14s 8s 22 29 mph 1013.8mb 53f 49f
7:50am 11ft 13s 8s 22 29 mph 1013.6mb 53f 49f
6:50am 12ft 13s 8s 25 31 mph 1013.2mb 53f 49f
5:50am 11ft 12s 8s 25 31 mph 1013.1mb 53f 49f
4:50am 13ft 14s 9s 16 20 mph 1013.2mb 53f 47f
3:50am 12ft 12s 9s 20 25 mph 1012.9mb 53f 48f
2:50am 13ft 13s 9s 20 25 mph 1013mb 53f 48f
1:50am 12ft 12s 9s 18 22 mph 1012.3mb 53f 49f
12:50am 12ft 14s 9s 13 18 mph 1011.8mb 53f 49f
Tue 11/24 11:50pm 11ft 12s 9s 7 11 mph 1011.8mb 53f 48f
10:50pm 12ft 12s 9s 20 27 mph 1011.4mb 53f 51f
9:50pm 12ft 14s 9s 9 13 mph 1011.9mb 53f 49f
8:50pm 11ft 11s 8s 13 25 mph 1012.2mb 53f 48f
7:50pm 12ft 13s 9s 13 18 mph 1012.2mb 53f 51f